createdAt,value
2022-11-27T00:01:20.432Z,10.71
2022-11-27T00:03:47.409Z,10.71
2022-11-27T00:06:16.349Z,10.68
2022-11-27T00:08:44.301Z,10.66
2022-11-27T00:11:16.486Z,10.64
2022-11-27T00:13:43.442Z,10.64
2022-11-27T00:16:10.517Z,10.64
2022-11-27T00:18:37.442Z,10.61
2022-11-27T00:21:24.793Z,10.59
2022-11-27T00:23:53.024Z,10.56
2022-11-27T00:26:19.818Z,10.53
2022-11-27T00:28:46.592Z,10.51
2022-11-27T00:31:15.213Z,10.48
2022-11-27T00:33:42.013Z,10.48
2022-11-27T00:36:09.479Z,10.46
2022-11-27T00:38:39.224Z,10.46
2022-11-27T00:41:08.201Z,10.44
2022-11-27T00:43:43.495Z,10.43
2022-11-27T00:46:11.824Z,10.42
2022-11-27T00:48:38.659Z,10.41
2022-11-27T00:51:08.548Z,10.38
2022-11-27T00:53:35.376Z,10.38
2022-11-27T00:56:02.274Z,10.36
2022-11-27T00:58:30.611Z,10.33
2022-11-27T01:01:00.210Z,10.31
2022-11-27T01:03:28.049Z,10.30
2022-11-27T01:05:54.712Z,10.27
2022-11-27T01:08:21.650Z,10.26
2022-11-27T01:10:55.567Z,10.23
2022-11-27T01:13:27.528Z,10.20
2022-11-27T01:16:01.257Z,10.18
2022-11-27T01:18:28.496Z,10.18
2022-11-27T01:20:55.617Z,10.16
2022-11-27T01:23:22.890Z,10.14
2022-11-27T01:25:49.771Z,10.12
2022-11-27T01:28:17.123Z,10.09
2022-11-27T01:30:43.766Z,10.09
2022-11-27T01:33:10.625Z,10.09
2022-11-27T01:35:37.305Z,10.07
2022-11-27T01:38:04.395Z,10.06
2022-11-27T01:40:31.266Z,10.04
2022-11-27T01:42:58.103Z,10.01
2022-11-27T01:45:24.813Z,10.00
2022-11-27T01:47:57.580Z,9.98
2022-11-27T01:50:31.438Z,9.96
2022-11-27T01:53:05.953Z,9.95
2022-11-27T01:55:39.221Z,9.92
2022-11-27T01:58:23.328Z,9.91
2022-11-27T02:00:50.147Z,9.90
2022-11-27T02:03:17.056Z,9.89
2022-11-27T02:05:43.920Z,9.86
2022-11-27T02:08:13.689Z,9.85
2022-11-27T02:10:58.411Z,9.83
2022-11-27T02:13:31.396Z,9.81
2022-11-27T02:16:07.807Z,9.78
2022-11-27T02:18:41.283Z,9.73
2022-11-27T02:21:20.585Z,9.70
2022-11-27T02:23:59.647Z,9.68
2022-11-27T02:26:41.578Z,9.63
2022-11-27T02:29:10.936Z,9.61
2022-11-27T02:31:48.511Z,9.58
2022-11-27T02:34:39.706Z,9.56
2022-11-27T02:37:16.206Z,9.55
2022-11-27T02:39:58.206Z,9.52
2022-11-27T02:42:27.417Z,9.51
2022-11-27T02:45:01.981Z,9.49
2022-11-27T02:47:29.617Z,9.48
2022-11-27T02:49:57.182Z,9.48
2022-11-27T02:52:26.786Z,9.44
2022-11-27T02:54:57.155Z,9.42
2022-11-27T02:57:25.149Z,9.42
2022-11-27T02:59:52.122Z,9.42
2022-11-27T03:02:22.496Z,9.41
2022-11-27T03:04:52.461Z,9.42
2022-11-27T03:07:25.727Z,9.40
2022-11-27T03:09:54.221Z,9.40
2022-11-27T03:12:21.033Z,9.39
2022-11-27T03:14:48.625Z,9.38
2022-11-27T03:17:55.202Z,9.39
2022-11-27T03:20:31.591Z,9.36
2022-11-27T03:22:58.714Z,9.35
2022-11-27T03:25:25.449Z,9.34
2022-11-27T03:27:57.068Z,9.31
2022-11-27T03:30:24.144Z,9.32
2022-11-27T03:32:50.936Z,9.31
2022-11-27T03:35:20.470Z,9.31
2022-11-27T03:37:47.543Z,9.31
2022-11-27T03:40:15.170Z,9.30
2022-11-27T03:43:03.517Z,9.28
2022-11-27T03:45:42.810Z,9.26
2022-11-27T03:48:21.388Z,9.25
2022-11-27T03:51:32.852Z,9.23
2022-11-27T03:54:05.694Z,9.22
2022-11-27T03:56:36.961Z,9.22
2022-11-27T03:59:15.866Z,9.22
2022-11-27T04:01:42.723Z,9.23
2022-11-27T04:04:09.604Z,9.23
2022-11-27T04:06:36.471Z,9.23
2022-11-27T04:09:03.653Z,9.22
2022-11-27T04:11:30.418Z,9.22
2022-11-27T04:13:58.717Z,9.19
2022-11-27T04:16:25.551Z,9.18
2022-11-27T04:18:52.366Z,9.18
2022-11-27T04:21:19.155Z,9.18
2022-11-27T04:23:45.819Z,9.18
2022-11-27T04:26:12.779Z,9.17
2022-11-27T04:28:39.447Z,9.16
2022-11-27T04:31:06.249Z,9.17
2022-11-27T04:33:33.095Z,9.15
2022-11-27T04:35:59.938Z,9.15
2022-11-27T04:38:26.608Z,9.13
2022-11-27T04:40:53.616Z,9.11
2022-11-27T04:43:20.306Z,9.06
2022-11-27T04:45:47.065Z,9.02
2022-11-27T04:48:13.869Z,9.04
2022-11-27T04:50:40.641Z,9.05
2022-11-27T04:53:13.329Z,9.06
2022-11-27T04:55:41.641Z,9.06
2022-11-27T04:58:08.359Z,9.06
2022-11-27T05:00:35.161Z,9.06
2022-11-27T05:03:01.928Z,9.06
2022-11-27T05:05:28.646Z,9.06
2022-11-27T05:07:55.388Z,9.06
2022-11-27T05:10:23.084Z,9.04
2022-11-27T05:12:49.753Z,9.03
2022-11-27T05:15:16.481Z,9.04
2022-11-27T05:17:43.194Z,9.04
2022-11-27T05:20:10.563Z,9.03
2022-11-27T05:22:37.357Z,9.03
2022-11-27T05:25:04.359Z,9.03
2022-11-27T05:27:31.035Z,9.04
2022-11-27T05:29:57.808Z,9.04
2022-11-27T05:32:24.568Z,9.04
2022-11-27T05:34:51.326Z,9.05
2022-11-27T05:37:19.801Z,9.04
2022-11-27T05:39:47.165Z,9.04
2022-11-27T05:42:13.912Z,9.04
2022-11-27T05:44:40.879Z,9.05
2022-11-27T05:47:07.905Z,9.04
2022-11-27T05:49:41.087Z,9.03
2022-11-27T05:52:09.286Z,9.03
2022-11-27T05:54:35.931Z,9.04
2022-11-27T05:57:02.655Z,9.04
2022-11-27T05:59:29.558Z,9.06
2022-11-27T06:01:56.421Z,9.06
2022-11-27T06:04:23.137Z,9.06
2022-11-27T06:06:50.225Z,9.06
2022-11-27T06:09:16.979Z,9.07
2022-11-27T06:11:43.781Z,9.07
2022-11-27T06:14:10.855Z,9.06
2022-11-27T06:16:37.862Z,9.07
2022-11-27T06:19:04.607Z,9.06
2022-11-27T06:21:31.345Z,9.07
2022-11-27T06:23:58.297Z,9.07
2022-11-27T06:26:27.250Z,9.07
2022-11-27T06:28:55.444Z,9.08
2022-11-27T06:31:24.587Z,9.07
2022-11-27T06:33:52.733Z,9.09
2022-11-27T06:36:20.407Z,9.08
2022-11-27T06:38:47.148Z,9.08
2022-11-27T06:41:16.944Z,9.08
2022-11-27T06:43:44.169Z,9.07
2022-11-27T06:46:16.088Z,9.07
2022-11-27T06:48:44.071Z,9.08
2022-11-27T06:51:12.754Z,9.07
2022-11-27T06:53:39.872Z,9.08
2022-11-27T06:56:09.326Z,9.03
2022-11-27T06:58:37.111Z,8.80
2022-11-27T07:01:06.706Z,8.55
2022-11-27T07:03:33.630Z,8.35
2022-11-27T07:06:03.430Z,8.19
2022-11-27T07:08:30.724Z,8.05
2022-11-27T07:11:06.192Z,7.89
2022-11-27T07:13:33.413Z,7.71
2022-11-27T07:16:02.810Z,7.60
2022-11-27T07:18:30.877Z,7.53
2022-11-27T07:20:57.553Z,7.49
2022-11-27T07:23:24.397Z,7.43
2022-11-27T07:25:51.188Z,7.42
2022-11-27T07:28:19.234Z,7.40
2022-11-27T07:30:46.327Z,7.40
2022-11-27T07:33:13.097Z,7.37
2022-11-27T07:35:39.793Z,7.09
2022-11-27T07:38:06.509Z,6.95
2022-11-27T07:40:33.378Z,7.04
2022-11-27T07:43:00.279Z,7.15
2022-11-27T07:45:26.998Z,7.20
2022-11-27T07:47:54.190Z,7.25
2022-11-27T07:50:20.878Z,7.27
2022-11-27T07:52:47.792Z,7.34
2022-11-27T07:55:14.742Z,7.34
2022-11-27T07:57:42.504Z,7.36
2022-11-27T08:00:09.915Z,7.37
2022-11-27T08:02:36.690Z,7.36
2022-11-27T08:05:08.131Z,7.39
2022-11-27T08:07:37.910Z,7.48
2022-11-27T08:10:05.042Z,7.48
2022-11-27T08:12:32.474Z,7.53
2022-11-27T08:14:59.678Z,7.56
2022-11-27T08:17:26.849Z,7.58
2022-11-27T08:19:53.629Z,7.59
2022-11-27T08:22:20.769Z,7.64
2022-11-27T08:24:48.201Z,7.69
2022-11-27T08:27:16.412Z,7.72
2022-11-27T08:29:43.378Z,7.81
2022-11-27T08:32:10.251Z,7.88
2022-11-27T08:34:37.438Z,7.95
2022-11-27T08:37:07.651Z,7.97
2022-11-27T08:39:52.796Z,8.01
2022-11-27T08:42:21.091Z,8.04
2022-11-27T08:44:48.131Z,7.93
2022-11-27T08:47:16.849Z,7.78
2022-11-27T08:49:46.308Z,7.84
2022-11-27T08:52:13.333Z,7.99
2022-11-27T08:54:40.228Z,8.09
2022-11-27T08:57:07.084Z,8.16
2022-11-27T08:59:37.953Z,8.23
2022-11-27T09:02:05.736Z,8.32
2022-11-27T09:04:32.939Z,8.42
2022-11-27T09:07:00.024Z,8.50
2022-11-27T09:09:27.306Z,8.52
2022-11-27T09:11:57.234Z,8.57
2022-11-27T09:14:24.935Z,8.65
2022-11-27T09:16:53.106Z,8.70
2022-11-27T09:19:21.739Z,8.76
2022-11-27T09:21:50.710Z,8.84
2022-11-27T09:24:17.600Z,8.96
2022-11-27T09:26:44.944Z,9.03
2022-11-27T09:29:11.694Z,8.90
2022-11-27T09:31:39.045Z,8.70
2022-11-27T09:34:06.661Z,8.54
2022-11-27T09:36:33.715Z,8.49
2022-11-27T09:39:00.525Z,8.49
2022-11-27T09:41:39.760Z,8.47
2022-11-27T09:44:12.849Z,8.55
2022-11-27T09:46:42.062Z,8.63
2022-11-27T09:49:13.272Z,8.73
2022-11-27T09:51:52.983Z,8.81
2022-11-27T09:54:52.209Z,8.85
2022-11-27T09:57:29.728Z,8.95
2022-11-27T09:59:59.011Z,9.07
2022-11-27T10:02:31.383Z,9.12
2022-11-27T10:05:15.495Z,9.26
2022-11-27T10:08:22.423Z,9.34
2022-11-27T10:11:01.688Z,9.36
2022-11-27T10:13:44.160Z,9.37
2022-11-27T10:16:25.168Z,9.43
2022-11-27T10:18:58.253Z,9.59
2022-11-27T10:21:45.381Z,9.69
2022-11-27T10:24:40.281Z,9.71
2022-11-27T10:27:39.920Z,9.53
2022-11-27T10:30:18.137Z,9.42
2022-11-27T10:32:54.962Z,9.42
2022-11-27T10:35:28.225Z,9.42
2022-11-27T10:37:56.344Z,9.44
2022-11-27T10:40:39.230Z,9.53
2022-11-27T10:43:24.623Z,9.67
2022-11-27T10:45:57.011Z,9.74
2022-11-27T10:48:24.238Z,9.95
2022-11-27T10:50:52.927Z,10.12
2022-11-27T10:53:39.914Z,10.27
2022-11-27T10:56:13.941Z,10.40
2022-11-27T10:58:43.649Z,10.47
2022-11-27T11:01:16.408Z,10.50
2022-11-27T11:03:43.526Z,10.55
2022-11-27T11:06:24.547Z,10.60
2022-11-27T11:09:04.044Z,10.63
2022-11-27T11:11:30.987Z,10.61
2022-11-27T11:13:57.752Z,10.58
2022-11-27T11:16:35.146Z,10.55
2022-11-27T11:19:02.917Z,10.53
2022-11-27T11:21:35.366Z,10.47
2022-11-27T11:24:12.807Z,10.40
2022-11-27T11:26:45.054Z,10.29
2022-11-27T11:29:34.539Z,10.38
2022-11-27T11:32:11.208Z,10.49
2022-11-27T11:34:42.909Z,10.62
2022-11-27T11:37:22.214Z,10.74
2022-11-27T11:40:01.055Z,10.86
2022-11-27T11:42:30.390Z,10.96
2022-11-27T11:45:13.347Z,10.95
2022-11-27T11:47:49.907Z,10.98
2022-11-27T11:50:33.715Z,11.10
2022-11-27T11:53:20.060Z,11.22
2022-11-27T11:56:16.121Z,11.37
2022-11-27T11:58:54.607Z,11.34
2022-11-27T12:01:57.033Z,11.22
2022-11-27T12:05:03.965Z,11.13
2022-11-27T12:07:30.736Z,11.15
2022-11-27T12:10:05.342Z,11.18
2022-11-27T12:12:48.116Z,11.34
2022-11-27T12:15:44.297Z,11.50
2022-11-27T12:18:37.023Z,11.55
2022-11-27T12:21:18.696Z,11.69
2022-11-27T12:24:33.573Z,11.86
2022-11-27T12:27:51.724Z,12.00
2022-11-27T12:30:21.045Z,12.04
2022-11-27T12:32:53.418Z,12.10
2022-11-27T12:35:34.845Z,12.10
2022-11-27T12:38:29.610Z,12.08
2022-11-27T12:41:23.522Z,12.16
2022-11-27T12:43:55.930Z,12.22
2022-11-27T12:46:26.995Z,12.24
2022-11-27T12:48:57.089Z,12.28
2022-11-27T12:51:27.859Z,12.36
2022-11-27T12:54:01.277Z,12.41
2022-11-27T12:56:30.207Z,12.37
2022-11-27T12:59:02.533Z,12.38
2022-11-27T13:01:44.302Z,12.40
2022-11-27T13:04:13.988Z,12.38
2022-11-27T13:06:58.585Z,12.35
2022-11-27T13:09:48.664Z,12.31
2022-11-27T13:12:25.081Z,12.32
2022-11-27T13:15:00.306Z,12.19
2022-11-27T13:17:34.475Z,12.05
2022-11-27T13:20:02.155Z,12.03
2022-11-27T13:22:32.127Z,11.98
2022-11-27T13:25:01.769Z,11.95
2022-11-27T13:27:30.174Z,11.95
2022-11-27T13:30:06.848Z,11.97
2022-11-27T13:32:40.926Z,11.95
2022-11-27T13:35:33.909Z,11.87
2022-11-27T13:38:06.554Z,11.87
2022-11-27T13:40:38.710Z,11.89
2022-11-27T13:43:07.354Z,11.92
2022-11-27T13:45:36.991Z,11.96
2022-11-27T13:48:20.721Z,12.02
2022-11-27T13:50:53.821Z,12.08
2022-11-27T13:53:47.582Z,12.06
2022-11-27T13:56:14.274Z,12.09
2022-11-27T13:58:43.212Z,12.05
2022-11-27T14:01:18.454Z,12.02
2022-11-27T14:03:45.373Z,12.03
2022-11-27T14:06:20.005Z,12.02
2022-11-27T14:08:58.578Z,12.03
2022-11-27T14:11:32.209Z,11.97
2022-11-27T14:13:59.447Z,11.95
2022-11-27T14:16:39.045Z,11.94
2022-11-27T14:19:21.940Z,11.95
2022-11-27T14:21:49.372Z,11.94
2022-11-27T14:24:26.619Z,11.88
2022-11-27T14:26:54.301Z,11.86
2022-11-27T14:29:22.461Z,11.82
2022-11-27T14:32:00.452Z,11.82
2022-11-27T14:34:34.409Z,11.81
2022-11-27T14:37:01.245Z,11.76
2022-11-27T14:39:30.531Z,11.76
2022-11-27T14:42:02.474Z,11.71
2022-11-27T14:44:29.924Z,11.62
2022-11-27T14:46:59.408Z,11.59
2022-11-27T14:49:27.778Z,11.55
2022-11-27T14:52:01.422Z,11.56
2022-11-27T14:54:39.554Z,11.59
2022-11-27T14:57:07.158Z,11.54
2022-11-27T14:59:33.849Z,11.38
2022-11-27T15:02:10.187Z,11.27
2022-11-27T15:04:39.809Z,11.19
2022-11-27T15:07:27.860Z,11.18
2022-11-27T15:09:57.104Z,11.17
2022-11-27T15:12:28.186Z,11.12
2022-11-27T15:15:10.353Z,11.12
2022-11-27T15:17:38.869Z,11.09
2022-11-27T15:20:15.274Z,11.09
2022-11-27T15:22:56.001Z,11.04
2022-11-27T15:25:48.980Z,11.10
2022-11-27T15:28:43.457Z,11.05
2022-11-27T15:31:37.487Z,10.99
2022-11-27T15:34:07.177Z,10.91
2022-11-27T15:36:42.014Z,10.91
2022-11-27T15:39:21.047Z,10.89
2022-11-27T15:41:55.520Z,10.87
2022-11-27T15:44:23.692Z,10.84
2022-11-27T15:46:51.497Z,10.65
2022-11-27T15:49:19.713Z,10.60
2022-11-27T15:51:46.593Z,10.62
2022-11-27T15:54:13.363Z,10.66
2022-11-27T15:56:40.089Z,10.64
2022-11-27T15:59:07.106Z,10.60
2022-11-27T16:01:33.825Z,10.60
2022-11-27T16:04:05.557Z,10.60
2022-11-27T16:06:36.338Z,10.61
2022-11-27T16:09:04.226Z,10.62
2022-11-27T16:11:31.577Z,10.61
2022-11-27T16:13:58.555Z,10.58
2022-11-27T16:16:25.694Z,10.58
2022-11-27T16:18:52.409Z,10.58
2022-11-27T16:21:19.332Z,10.53
2022-11-27T16:23:45.983Z,10.52
2022-11-27T16:26:14.047Z,10.54
2022-11-27T16:28:41.249Z,10.52
2022-11-27T16:31:11.153Z,10.52
2022-11-27T16:33:38.117Z,10.49
2022-11-27T16:36:13.535Z,10.41
2022-11-27T16:38:42.286Z,10.43
2022-11-27T16:41:16.081Z,10.38
2022-11-27T16:43:46.082Z,10.34
2022-11-27T16:46:15.828Z,10.31
2022-11-27T16:48:44.413Z,10.27
2022-11-27T16:51:18.151Z,10.33
2022-11-27T16:53:47.159Z,10.41
2022-11-27T16:56:15.406Z,10.49
2022-11-27T16:58:44.223Z,10.57
2022-11-27T17:01:17.462Z,10.65
2022-11-27T17:03:45.882Z,10.72
2022-11-27T17:06:15.151Z,10.80
2022-11-27T17:08:42.154Z,10.84
2022-11-27T17:11:29.389Z,10.91
2022-11-27T17:13:58.224Z,10.95
2022-11-27T17:16:27.182Z,11.01
2022-11-27T17:18:54.513Z,11.05
2022-11-27T17:21:30.467Z,11.08
2022-11-27T17:24:03.622Z,11.13
2022-11-27T17:26:44.201Z,11.16
2022-11-27T17:29:16.700Z,11.18
2022-11-27T17:31:44.075Z,11.20
2022-11-27T17:34:13.669Z,11.23
2022-11-27T17:36:42.922Z,11.26
2022-11-27T17:39:12.776Z,11.31
2022-11-27T17:41:40.617Z,11.32
2022-11-27T17:44:08.236Z,11.35
2022-11-27T17:46:36.290Z,11.36
2022-11-27T17:49:06.338Z,11.38
2022-11-27T17:51:34.731Z,11.39
2022-11-27T17:54:03.014Z,11.40
2022-11-27T17:56:31.917Z,11.43
2022-11-27T17:58:59.955Z,11.44
2022-11-27T18:01:29.270Z,11.44
2022-11-27T18:03:59.867Z,11.45
2022-11-27T18:06:29.411Z,11.47
2022-11-27T18:08:58.212Z,11.47
2022-11-27T18:11:28.259Z,11.48
2022-11-27T18:13:58.320Z,11.51
2022-11-27T18:16:31.440Z,11.51
2022-11-27T18:18:59.141Z,11.51
2022-11-27T18:21:29.331Z,11.52
2022-11-27T18:27:07.351Z,11.53
2022-11-27T18:29:29.775Z,11.55
2022-11-27T18:31:56.601Z,11.55
2022-11-27T18:34:23.407Z,11.55
2022-11-27T18:36:50.136Z,11.55
2022-11-27T18:39:16.866Z,11.54
2022-11-27T18:41:43.520Z,11.55
2022-11-27T18:44:10.486Z,11.54
2022-11-27T18:46:38.391Z,11.54
2022-11-27T18:49:05.555Z,11.53
2022-11-27T18:51:32.735Z,11.53
2022-11-27T18:53:59.642Z,11.53
2022-11-27T18:56:30.410Z,11.53
2022-11-27T18:59:03.295Z,11.53
2022-11-27T19:01:35.396Z,11.53
2022-11-27T19:04:04.150Z,11.53
2022-11-27T19:06:31.033Z,11.51
2022-11-27T19:08:58.988Z,11.49
2022-11-27T19:11:28.526Z,11.49
2022-11-27T19:13:56.598Z,11.49
2022-11-27T19:16:26.429Z,11.50
2022-11-27T19:18:55.814Z,11.49
2022-11-27T19:21:24.957Z,11.47
2022-11-27T19:23:54.533Z,11.47
2022-11-27T19:26:33.383Z,11.45
2022-11-27T19:29:03.709Z,11.46
2022-11-27T19:31:33.039Z,11.46
2022-11-27T19:34:01.569Z,11.45
2022-11-27T19:36:30.545Z,11.45
2022-11-27T19:39:01.521Z,11.44
2022-11-27T19:41:30.066Z,11.44
2022-11-27T19:44:04.803Z,11.43
2022-11-27T19:46:34.656Z,11.44
2022-11-27T19:49:08.633Z,11.43
2022-11-27T19:51:37.615Z,11.42
2022-11-27T19:54:09.934Z,11.42
2022-11-27T19:56:40.408Z,11.43
2022-11-27T19:59:08.425Z,11.43
2022-11-27T20:01:35.936Z,11.44
2022-11-27T20:04:04.070Z,11.42
2022-11-27T20:06:30.893Z,11.43
2022-11-27T20:09:00.803Z,11.43
2022-11-27T20:11:34.164Z,11.43
2022-11-27T20:14:02.205Z,11.45
2022-11-27T20:16:28.986Z,11.43
2022-11-27T20:18:56.011Z,11.43
2022-11-27T20:21:25.676Z,11.42
2022-11-27T20:23:54.636Z,11.42
2022-11-27T20:26:25.247Z,11.42
2022-11-27T20:28:54.089Z,11.43
2022-11-27T20:31:24.398Z,11.42
2022-11-27T20:33:52.861Z,11.44
2022-11-27T20:36:22.462Z,11.42
2022-11-27T20:38:50.576Z,11.42
2022-11-27T20:41:19.607Z,11.42
2022-11-27T20:43:50.556Z,11.43
2022-11-27T20:46:18.132Z,11.44
2022-11-27T20:48:46.497Z,11.44
2022-11-27T20:51:16.699Z,11.43
2022-11-27T20:53:44.726Z,11.43
2022-11-27T20:56:12.954Z,11.43
2022-11-27T20:58:40.904Z,11.43
2022-11-27T21:01:29.685Z,11.44
2022-11-27T21:03:57.409Z,11.44
2022-11-27T21:06:26.074Z,11.44
2022-11-27T21:08:53.789Z,11.43
2022-11-27T21:11:25.121Z,11.43
2022-11-27T21:14:04.025Z,11.44
2022-11-27T21:16:33.730Z,11.44
2022-11-27T21:19:21.585Z,11.46
2022-11-27T21:21:50.181Z,11.44
2022-11-27T21:24:18.415Z,11.44
2022-11-27T21:26:45.621Z,11.44
2022-11-27T21:29:15.130Z,11.44
2022-11-27T21:31:46.448Z,11.43
2022-11-27T21:34:15.009Z,11.44
2022-11-27T21:36:43.247Z,11.43
2022-11-27T21:39:11.879Z,11.42
2022-11-27T21:41:38.656Z,11.43
2022-11-27T21:44:05.823Z,11.44
2022-11-27T21:46:33.707Z,11.43
2022-11-27T21:49:03.995Z,11.43
2022-11-27T21:51:31.342Z,11.43
2022-11-27T21:53:59.430Z,11.44
2022-11-27T21:56:28.384Z,11.43
2022-11-27T21:58:55.354Z,11.44
2022-11-27T22:01:24.093Z,11.43
2022-11-27T22:03:54.170Z,11.42
2022-11-27T22:06:21.745Z,11.40
2022-11-27T22:08:50.182Z,11.34
2022-11-27T22:11:19.940Z,11.33
2022-11-27T22:13:48.746Z,11.35
2022-11-27T22:16:18.217Z,11.38
2022-11-27T22:18:45.610Z,11.39
2022-11-27T22:21:13.434Z,11.40
2022-11-27T22:23:42.049Z,11.41
2022-11-27T22:26:14.211Z,11.40
2022-11-27T22:28:41.314Z,11.40
2022-11-27T22:31:17.482Z,11.40
2022-11-27T22:33:45.283Z,11.41
2022-11-27T22:36:22.895Z,11.41
2022-11-27T22:38:52.050Z,11.41
2022-11-27T22:41:20.841Z,11.41
2022-11-27T22:43:47.802Z,11.42
2022-11-27T22:46:23.260Z,11.40
2022-11-27T22:48:58.218Z,11.38
2022-11-27T22:51:26.586Z,11.38
2022-11-27T22:53:53.466Z,11.38
2022-11-27T22:56:20.453Z,11.37
2022-11-27T22:58:48.091Z,11.39
2022-11-27T23:01:18.168Z,11.36
2022-11-27T23:03:45.465Z,11.37
2022-11-27T23:06:14.732Z,11.37
2022-11-27T23:08:42.890Z,11.35
2022-11-27T23:11:10.965Z,11.35
2022-11-27T23:13:37.618Z,11.33
2022-11-27T23:16:06.120Z,11.33
2022-11-27T23:18:33.484Z,11.32
2022-11-27T23:21:00.485Z,11.32
2022-11-27T23:23:27.213Z,11.31
2022-11-27T23:25:53.914Z,11.32
2022-11-27T23:28:20.630Z,11.32
2022-11-27T23:30:48.523Z,11.33
2022-11-27T23:33:19.396Z,11.32
2022-11-27T23:35:46.050Z,11.33
2022-11-27T23:38:12.904Z,11.33
2022-11-27T23:40:39.772Z,11.32
2022-11-27T23:43:06.578Z,11.31
2022-11-27T23:45:33.314Z,11.31
2022-11-27T23:48:00.097Z,11.31
2022-11-27T23:50:26.750Z,11.34
2022-11-27T23:52:54.182Z,11.34
2022-11-27T23:55:20.864Z,11.35
2022-11-27T23:57:47.650Z,11.35
